Time;durP1;ratioP1;P1;durP2;ratioP2;P2;SDS_P1;SDS_P2;PMS_P1;PMS_P2;Temp;Humidity;BMP_temperature;BMP_pressure;BME280_temperature;BME280_humidity;BME280_pressure;Samples;Min_cycle;Max_cycle;Signal;HPM_P1;HPM_P2
2022/08/19 00:01:34;;;;;;;4.50;3.30;;;;;;;;;;5119058;28;20291;-66
2022/08/19 00:04:07;;;;;;;3.20;3.00;;;;;;;;;;5119033;28;20284;-67
2022/08/19 00:06:36;;;;;;;4.67;3.23;;;;;;;;;;5119252;28;20210;-66
2022/08/19 00:09:05;;;;;;;3.43;2.60;;;;;;;;;;5118733;28;20246;-66
2022/08/19 00:11:37;;;;;;;3.40;3.10;;;;;;;;;;5117757;28;20249;-66
2022/08/19 00:14:06;;;;;;;2.90;2.70;;;;;;;;;;5105078;28;20260;-67
2022/08/19 00:16:34;;;;;;;2.83;2.67;;;;;;;;;;5098133;28;20233;-66
2022/08/19 00:19:02;;;;;;;2.70;2.50;;;;;;;;;;5098154;28;20234;-67
2022/08/19 00:21:31;;;;;;;2.97;2.77;;;;;;;;;;5103782;28;20201;-67
2022/08/19 00:24:00;;;;;;;3.33;3.10;;;;;;;;;;5118660;28;20223;-67
2022/08/19 00:26:28;;;;;;;2.87;2.67;;;;;;;;;;5118366;28;20320;-67
2022/08/19 00:28:56;;;;;;;2.80;2.57;;;;;;;;;;5116984;27;20207;-67
2022/08/19 00:31:25;;;;;;;3.30;3.00;;;;;;;;;;5118092;28;20309;-67
2022/08/19 00:33:53;;;;;;;3.97;3.00;;;;;;;;;;5118596;28;20224;-67
2022/08/19 00:36:21;;;;;;;3.83;2.90;;;;;;;;;;5118562;28;20598;-67
2022/08/19 00:38:52;;;;;;;3.50;3.20;;;;;;;;;;5118587;28;20243;-67
2022/08/19 00:41:21;;;;;;;3.30;3.00;;;;;;;;;;5104528;28;20204;-67
2022/08/19 00:43:58;;;;;;;3.33;3.10;;;;;;;;;;5118505;28;20274;-67
2022/08/19 00:46:26;;;;;;;6.43;2.70;;;;;;;;;;5118361;28;20205;-67
2022/08/19 00:48:54;;;;;;;3.37;2.60;;;;;;;;;;5118348;28;20243;-67
2022/08/19 00:51:26;;;;;;;2.73;2.50;;;;;;;;;;5118015;28;20308;-67
2022/08/19 00:53:56;;;;;;;3.23;2.57;;;;;;;;;;5118046;28;20232;-67
2022/08/19 00:56:26;;;;;;;3.03;2.50;;;;;;;;;;5118577;28;20234;-67
2022/08/19 00:58:55;;;;;;;2.57;2.37;;;;;;;;;;5118070;28;20259;-66
2022/08/19 01:01:23;;;;;;;2.93;2.73;;;;;;;;;;5117950;28;20203;-67
2022/08/19 01:03:51;;;;;;;4.23;2.63;;;;;;;;;;5102422;28;20230;-67
2022/08/19 01:06:25;;;;;;;3.40;2.30;;;;;;;;;;5117488;28;20212;-67
2022/08/19 01:08:53;;;;;;;2.77;2.50;;;;;;;;;;5117998;28;20733;-67
2022/08/19 01:11:22;;;;;;;4.60;2.43;;;;;;;;;;5104138;28;20246;-67
2022/08/19 01:13:51;;;;;;;4.90;2.63;;;;;;;;;;5107071;28;20667;-66
2022/08/19 01:16:20;;;;;;;2.70;2.50;;;;;;;;;;5097307;28;20240;-67
2022/08/19 01:18:49;;;;;;;3.87;2.73;;;;;;;;;;5098511;28;20200;-67
2022/08/19 01:21:19;;;;;;;2.63;2.43;;;;;;;;;;5107846;28;20204;-67
2022/08/19 01:23:48;;;;;;;2.80;2.43;;;;;;;;;;5117677;28;20257;-67
2022/08/19 01:26:17;;;;;;;2.87;2.40;;;;;;;;;;5117801;28;20207;-67
2022/08/19 01:28:47;;;;;;;2.70;2.50;;;;;;;;;;5117872;28;20213;-67
2022/08/19 01:31:16;;;;;;;2.70;2.37;;;;;;;;;;5117774;28;20221;-67
2022/08/19 01:33:56;;;;;;;3.20;2.43;;;;;;;;;;5116705;28;20317;-67
2022/08/19 01:36:26;;;;;;;2.80;2.60;;;;;;;;;;5115961;28;20684;-67
2022/08/19 01:38:55;;;;;;;7.23;2.63;;;;;;;;;;5116081;28;20210;-67
2022/08/19 01:41:23;;;;;;;2.40;2.30;;;;;;;;;;5102045;28;20227;-67
2022/08/19 01:43:52;;;;;;;3.30;2.27;;;;;;;;;;5115720;28;20266;-67
2022/08/19 01:46:40;;;;;;;2.37;2.27;;;;;;;;;;5115906;28;20208;-67
2022/08/19 01:49:08;;;;;;;3.03;2.67;;;;;;;;;;5117079;28;20213;-67
2022/08/19 01:51:38;;;;;;;3.33;2.83;;;;;;;;;;5117565;28;20239;-67
2022/08/19 01:54:08;;;;;;;2.30;2.20;;;;;;;;;;5117767;28;20224;-67
2022/08/19 01:56:37;;;;;;;2.50;2.30;;;;;;;;;;5117877;28;20218;-67
2022/08/19 01:59:07;;;;;;;2.60;2.40;;;;;;;;;;5117873;28;20208;-67
2022/08/19 02:01:35;;;;;;;2.50;2.30;;;;;;;;;;5120325;28;20254;-67
2022/08/19 02:04:04;;;;;;;4.03;2.27;;;;;;;;;;5121311;27;20281;-67
2022/08/19 02:06:33;;;;;;;3.23;2.20;;;;;;;;;;5121439;28;20265;-67
2022/08/19 02:09:01;;;;;;;2.20;2.03;;;;;;;;;;5121394;28;20236;-67
2022/08/19 02:11:33;;;;;;;3.23;2.30;;;;;;;;;;5104776;28;20258;-67
2022/08/19 02:14:02;;;;;;;3.00;2.40;;;;;;;;;;5109508;28;20256;-67
2022/08/19 02:16:30;;;;;;;2.13;1.93;;;;;;;;;;5100662;28;20236;-67
2022/08/19 02:19:00;;;;;;;3.17;2.60;;;;;;;;;;5100833;28;20256;-66
2022/08/19 02:21:28;;;;;;;2.53;2.10;;;;;;;;;;5106563;28;20208;-67
2022/08/19 02:23:56;;;;;;;2.40;2.20;;;;;;;;;;5120673;28;20354;-67
2022/08/19 02:26:26;;;;;;;2.63;2.00;;;;;;;;;;5120760;28;20261;-67
2022/08/19 02:28:56;;;;;;;2.27;2.07;;;;;;;;;;5120920;28;20209;-67
2022/08/19 02:31:25;;;;;;;3.90;2.07;;;;;;;;;;5120743;28;20267;-67
2022/08/19 02:33:53;;;;;;;3.60;2.07;;;;;;;;;;5120505;28;20257;-67
2022/08/19 02:36:24;;;;;;;3.23;2.90;;;;;;;;;;5121031;28;20240;-67
2022/08/19 02:38:51;;;;;;;2.03;1.93;;;;;;;;;;5120692;28;20245;-67
2022/08/19 02:41:22;;;;;;;2.00;1.90;;;;;;;;;;5106550;28;20205;-67
2022/08/19 02:43:56;;;;;;;2.53;1.70;;;;;;;;;;5120432;28;20570;-67
2022/08/19 02:46:46;;;;;;;5.23;2.00;;;;;;;;;;5120476;28;20301;-67
2022/08/19 02:49:16;;;;;;;1.80;1.70;;;;;;;;;;5120616;28;20257;-67
2022/08/19 02:51:45;;;;;;;1.90;1.80;;;;;;;;;;5120248;28;20323;-67
2022/08/19 02:54:15;;;;;;;2.63;2.03;;;;;;;;;;5120175;28;20253;-67
2022/08/19 02:56:45;;;;;;;2.73;2.00;;;;;;;;;;5120202;28;20677;-67
2022/08/19 02:59:14;;;;;;;2.87;1.50;;;;;;;;;;5120040;27;20255;-67
2022/08/19 03:01:42;;;;;;;2.00;1.43;;;;;;;;;;5120367;28;20210;-67
2022/08/19 03:04:11;;;;;;;1.93;1.70;;;;;;;;;;5120353;28;20241;-67
2022/08/19 03:06:40;;;;;;;1.83;1.70;;;;;;;;;;5120330;28;20237;-67
2022/08/19 03:09:08;;;;;;;1.83;1.67;;;;;;;;;;5116860;28;20266;-67
2022/08/19 03:11:36;;;;;;;1.90;1.77;;;;;;;;;;5109254;28;20239;-67
2022/08/19 03:14:05;;;;;;;1.70;1.60;;;;;;;;;;5102578;28;20224;-67
2022/08/19 03:16:40;;;;;;;1.73;1.60;;;;;;;;;;5099383;28;20238;-67
2022/08/19 03:19:08;;;;;;;1.60;1.50;;;;;;;;;;5099309;28;20215;-67
2022/08/19 03:21:36;;;;;;;2.10;1.90;;;;;;;;;;5112078;28;20630;-66
2022/08/19 03:24:06;;;;;;;1.77;1.67;;;;;;;;;;5119438;28;20528;-67
2022/08/19 03:26:35;;;;;;;2.10;1.73;;;;;;;;;;5119521;28;20234;-67
2022/08/19 03:29:03;;;;;;;1.27;1.27;;;;;;;;;;5120163;28;20206;-67
2022/08/19 03:31:33;;;;;;;2.00;1.80;;;;;;;;;;5119232;28;20695;-67
2022/08/19 03:34:22;;;;;;;1.60;1.50;;;;;;;;;;5119667;28;20223;-67
2022/08/19 03:36:50;;;;;;;2.00;1.90;;;;;;;;;;5119441;28;20208;-67
2022/08/19 03:39:18;;;;;;;1.60;1.50;;;;;;;;;;5115846;28;20245;-67
2022/08/19 03:41:49;;;;;;;2.27;2.07;;;;;;;;;;5109763;28;20205;-66
2022/08/19 03:44:38;;;;;;;1.93;1.83;;;;;;;;;;5119404;28;20296;-66
2022/08/19 03:47:06;;;;;;;2.50;2.30;;;;;;;;;;5119599;28;20253;-65
2022/08/19 03:49:36;;;;;;;1.90;1.80;;;;;;;;;;5119273;28;20247;-65
2022/08/19 03:52:07;;;;;;;2.50;2.30;;;;;;;;;;5119489;28;20287;-64
2022/08/19 03:54:35;;;;;;;2.80;2.60;;;;;;;;;;5119323;28;20221;-65
2022/08/19 03:57:04;;;;;;;5.13;2.50;;;;;;;;;;5119239;28;20204;-64
2022/08/19 03:59:33;;;;;;;3.20;2.90;;;;;;;;;;5119010;28;20236;-65
2022/08/19 04:02:01;;;;;;;3.07;2.60;;;;;;;;;;5119128;28;20212;-65
2022/08/19 04:04:30;;;;;;;3.13;2.63;;;;;;;;;;5118866;28;20656;-65
2022/08/19 04:07:00;;;;;;;4.93;2.70;;;;;;;;;;5119065;28;20284;-64
2022/08/19 04:09:28;;;;;;;2.70;2.50;;;;;;;;;;5115117;28;20605;-65
2022/08/19 04:11:57;;;;;;;2.97;2.57;;;;;;;;;;5118088;28;20215;-65
2022/08/19 04:14:25;;;;;;;3.63;2.20;;;;;;;;;;5102088;28;20571;-65
2022/08/19 04:16:53;;;;;;;4.63;2.70;;;;;;;;;;5118961;28;20244;-66
2022/08/19 04:19:22;;;;;;;2.90;2.60;;;;;;;;;;5118629;28;20681;-66
2022/08/19 04:21:52;;;;;;;4.37;2.33;;;;;;;;;;5112886;28;20202;-67
2022/08/19 04:24:22;;;;;;;2.90;2.20;;;;;;;;;;5117817;28;20250;-65
2022/08/19 04:26:50;;;;;;;2.00;1.90;;;;;;;;;;5118700;28;20241;-65
2022/08/19 04:29:21;;;;;;;3.43;2.27;;;;;;;;;;5118256;28;20201;-64
2022/08/19 04:31:50;;;;;;;3.10;2.80;;;;;;;;;;5118371;28;20240;-65
2022/08/19 04:34:21;;;;;;;2.60;2.40;;;;;;;;;;5118571;28;20259;-64
2022/08/19 04:36:51;;;;;;;2.43;2.23;;;;;;;;;;5118609;28;20210;-66
2022/08/19 04:39:20;;;;;;;3.30;2.60;;;;;;;;;;5118389;28;20209;-66
2022/08/19 04:44:36;;;;;;;4.33;2.67;;;;;;;;;;5105883;28;20778;-66
2022/08/19 04:47:13;;;;;;;3.80;2.40;;;;;;;;;;5118503;28;20200;-67
2022/08/19 04:49:41;;;;;;;2.30;2.10;;;;;;;;;;5118216;28;20206;-66
2022/08/19 04:52:09;;;;;;;3.40;2.50;;;;;;;;;;5118308;28;20213;-67
2022/08/19 04:54:37;;;;;;;2.33;2.10;;;;;;;;;;5118289;28;20237;-66
2022/08/19 04:57:09;;;;;;;2.70;2.50;;;;;;;;;;5118304;28;20208;-66
2022/08/19 04:59:38;;;;;;;3.63;2.43;;;;;;;;;;5118235;28;20205;-66
2022/08/19 05:02:07;;;;;;;4.00;2.57;;;;;;;;;;5118383;28;20256;-66
2022/08/19 05:04:38;;;;;;;4.83;2.33;;;;;;;;;;5118348;28;20223;-66
2022/08/19 05:07:07;;;;;;;4.57;2.67;;;;;;;;;;5118356;28;20252;-66
2022/08/19 05:09:35;;;;;;;2.93;2.73;;;;;;;;;;5108340;28;20572;-66
2022/08/19 05:12:24;;;;;;;2.93;2.63;;;;;;;;;;5098165;27;20381;-66
2022/08/19 05:14:56;;;;;;;5.30;2.43;;;;;;;;;;5096851;28;20287;-66
2022/08/19 05:17:24;;;;;;;4.73;3.63;;;;;;;;;;5097664;28;20237;-66
2022/08/19 05:22:42;;;;;;;3.00;2.80;;;;;;;;;;5109629;28;20211;-65
2022/08/19 05:25:11;;;;;;;2.33;2.13;;;;;;;;;;5117605;28;20248;-66
2022/08/19 05:27:42;;;;;;;3.03;2.73;;;;;;;;;;5117861;28;20209;-66
2022/08/19 05:30:11;;;;;;;3.60;2.90;;;;;;;;;;5117307;28;20675;-66
2022/08/19 05:32:40;;;;;;;3.63;3.00;;;;;;;;;;5116799;28;20594;-65
2022/08/19 05:35:09;;;;;;;4.07;2.63;;;;;;;;;;5117977;28;20590;-64
2022/08/19 05:37:39;;;;;;;4.90;2.77;;;;;;;;;;5121849;28;20250;-64
2022/08/19 05:40:08;;;;;;;4.17;2.67;;;;;;;;;;5108040;28;20210;-64
2022/08/19 05:42:37;;;;;;;4.70;3.20;;;;;;;;;;5118386;28;20223;-65
2022/08/19 05:45:07;;;;;;;4.10;3.57;;;;;;;;;;5114061;28;20248;-65
2022/08/19 05:47:35;;;;;;;4.90;3.20;;;;;;;;;;5114191;28;20235;-65
2022/08/19 05:50:09;;;;;;;6.63;3.03;;;;;;;;;;5117933;28;20238;-65
2022/08/19 05:52:38;;;;;;;3.63;2.83;;;;;;;;;;5116206;28;20197;-65
2022/08/19 05:55:16;;;;;;;3.23;2.90;;;;;;;;;;5116151;28;20218;-65
2022/08/19 05:57:44;;;;;;;4.47;3.40;;;;;;;;;;5117230;28;20652;-65
2022/08/19 06:00:14;;;;;;;5.13;3.53;;;;;;;;;;5117982;28;20562;-65
2022/08/19 06:02:42;;;;;;;4.73;2.60;;;;;;;;;;5111942;28;20203;-65
2022/08/19 06:05:11;;;;;;;3.43;2.93;;;;;;;;;;5121410;28;20224;-64
2022/08/19 06:07:40;;;;;;;3.50;3.20;;;;;;;;;;5120054;28;20563;-64
2022/08/19 06:10:09;;;;;;;3.33;3.10;;;;;;;;;;5118655;28;20654;-65
2022/08/19 06:12:38;;;;;;;3.37;3.03;;;;;;;;;;5111736;28;20684;-65
2022/08/19 06:15:07;;;;;;;5.10;3.50;;;;;;;;;;5120637;28;20696;-64
2022/08/19 06:17:37;;;;;;;3.57;3.27;;;;;;;;;;5121295;28;20245;-65
2022/08/19 06:20:05;;;;;;;5.63;3.53;;;;;;;;;;5117845;27;20244;-64
2022/08/19 06:22:38;;;;;;;3.80;3.13;;;;;;;;;;5111783;28;20271;-65
2022/08/19 06:25:06;;;;;;;4.40;2.80;;;;;;;;;;5101176;28;20630;-64
2022/08/19 06:27:34;;;;;;;3.40;3.10;;;;;;;;;;5103909;28;20310;-61
2022/08/19 06:30:03;;;;;;;4.83;3.23;;;;;;;;;;5120873;28;20261;-60
2022/08/19 06:32:31;;;;;;;4.53;3.23;;;;;;;;;;5120893;28;20214;-60
2022/08/19 06:35:00;;;;;;;6.13;3.33;;;;;;;;;;5120846;28;20273;-60
2022/08/19 06:37:29;;;;;;;6.17;3.80;;;;;;;;;;5109877;28;20229;-58
2022/08/19 06:39:57;;;;;;;3.80;3.40;;;;;;;;;;5118719;27;20198;-60
2022/08/19 06:42:25;;;;;;;4.20;3.33;;;;;;;;;;5111287;28;20205;-59
2022/08/19 06:44:53;;;;;;;3.93;3.30;;;;;;;;;;5111596;28;20696;-59
2022/08/19 06:47:22;;;;;;;5.50;3.17;;;;;;;;;;5110615;27;20685;-59
2022/08/19 06:49:58;;;;;;;4.17;3.80;;;;;;;;;;5111445;27;20198;-60
2022/08/19 06:52:31;;;;;;;3.77;3.40;;;;;;;;;;5113308;28;20209;-60
2022/08/19 06:55:01;;;;;;;3.57;3.27;;;;;;;;;;5109780;27;20701;-60
2022/08/19 06:57:33;;;;;;;5.03;3.30;;;;;;;;;;5099538;28;20193;-60
2022/08/19 07:00:01;;;;;;;3.53;3.23;;;;;;;;;;5106975;28;20206;-60
2022/08/19 07:02:29;;;;;;;5.40;3.90;;;;;;;;;;5118270;28;20197;-60
2022/08/19 07:04:58;;;;;;;4.07;3.03;;;;;;;;;;5105623;28;20713;-60
2022/08/19 07:07:33;;;;;;;7.87;3.80;;;;;;;;;;5117869;28;20206;-60
2022/08/19 07:10:01;;;;;;;6.93;5.77;;;;;;;;;;5108395;28;20210;-60
2022/08/19 07:12:34;;;;;;;5.23;4.07;;;;;;;;;;5110811;28;20208;-60
2022/08/19 07:15:05;;;;;;;4.27;3.53;;;;;;;;;;5118341;28;20235;-60
2022/08/19 07:17:34;;;;;;;5.97;3.80;;;;;;;;;;5117168;28;20222;-60
2022/08/19 07:20:02;;;;;;;9.17;3.90;;;;;;;;;;5117986;28;20218;-60
2022/08/19 07:22:35;;;;;;;5.53;3.87;;;;;;;;;;5119359;28;20205;-60
2022/08/19 07:25:03;;;;;;;6.63;3.93;;;;;;;;;;5115938;28;20226;-60
2022/08/19 07:27:31;;;;;;;7.27;3.73;;;;;;;;;;5099366;28;20208;-60
2022/08/19 07:30:00;;;;;;;5.23;4.00;;;;;;;;;;5117191;28;20732;-61
2022/08/19 07:32:29;;;;;;;5.47;4.23;;;;;;;;;;5101026;27;20198;-60
2022/08/19 07:34:57;;;;;;;4.00;3.60;;;;;;;;;;5100154;28;20225;-61
2022/08/19 07:37:26;;;;;;;4.40;3.57;;;;;;;;;;5107325;28;20211;-60
2022/08/19 07:40:01;;;;;;;4.63;4.20;;;;;;;;;;5118167;28;20236;-60
2022/08/19 07:42:29;;;;;;;5.90;4.30;;;;;;;;;;5108929;28;20215;-60
2022/08/19 07:44:58;;;;;;;4.67;3.87;;;;;;;;;;5104913;28;20229;-60
2022/08/19 07:47:28;;;;;;;4.77;3.87;;;;;;;;;;5100257;28;20240;-61
2022/08/19 07:50:16;;;;;;;4.77;4.10;;;;;;;;;;5107808;28;20235;-61
2022/08/19 07:52:44;;;;;;;5.53;4.00;;;;;;;;;;5113273;27;20201;-61
2022/08/19 07:55:18;;;;;;;7.63;4.13;;;;;;;;;;5112239;28;20245;-60
2022/08/19 07:58:06;;;;;;;5.37;4.17;;;;;;;;;;5110692;28;20297;-60
2022/08/19 08:00:35;;;;;;;5.47;4.67;;;;;;;;;;5112505;28;20255;-61
2022/08/19 08:03:03;;;;;;;4.60;4.20;;;;;;;;;;5114372;28;20288;-60
2022/08/19 08:11:04;;;;;;;5.07;4.40;;;;;;;;;;5109151;28;20248;-61
2022/08/19 08:13:35;;;;;;;6.37;4.50;;;;;;;;;;5114814;28;20588;-61
2022/08/19 08:16:06;;;;;;;5.63;5.13;;;;;;;;;;5117338;28;20238;-61
2022/08/19 08:18:43;;;;;;;5.80;5.20;;;;;;;;;;5116168;28;20288;-61
2022/08/19 08:21:19;;;;;;;6.83;5.30;;;;;;;;;;5111872;28;20210;-60
2022/08/19 08:23:47;;;;;;;8.70;5.23;;;;;;;;;;5109754;28;20222;-61
2022/08/19 08:26:20;;;;;;;7.03;5.37;;;;;;;;;;5114351;28;21371;-60
2022/08/19 08:28:48;;;;;;;9.03;5.60;;;;;;;;;;5110340;28;20205;-61
2022/08/19 08:31:18;;;;;;;7.40;5.57;;;;;;;;;;5106607;28;20210;-60
2022/08/19 08:33:47;;;;;;;5.80;5.30;;;;;;;;;;5109395;28;20225;-60
2022/08/19 08:36:16;;;;;;;6.60;5.37;;;;;;;;;;5117461;28;20226;-60
2022/08/19 08:38:45;;;;;;;6.37;5.77;;;;;;;;;;5106536;28;20214;-61
2022/08/19 08:41:20;;;;;;;7.27;5.80;;;;;;;;;;5112725;28;20542;-61
2022/08/19 08:43:51;;;;;;;6.37;5.57;;;;;;;;;;5104711;28;20250;-61
2022/08/19 08:46:22;;;;;;;7.13;5.80;;;;;;;;;;5104197;28;20242;-61
2022/08/19 08:49:03;;;;;;;7.03;5.73;;;;;;;;;;5099257;28;20207;-60
2022/08/19 08:51:34;;;;;;;7.80;6.13;;;;;;;;;;5098929;28;20666;-60
2022/08/19 08:54:03;;;;;;;7.87;6.40;;;;;;;;;;5112673;28;20231;-59
2022/08/19 08:56:32;;;;;;;7.90;5.90;;;;;;;;;;5112036;28;20219;-60
2022/08/19 08:59:03;;;;;;;6.87;6.07;;;;;;;;;;5108113;28;20207;-59
2022/08/19 09:01:31;;;;;;;8.73;6.83;;;;;;;;;;5112578;28;20226;-60
2022/08/19 09:03:59;;;;;;;9.13;6.37;;;;;;;;;;5117696;28;20256;-59
2022/08/19 09:06:42;;;;;;;8.27;6.50;;;;;;;;;;5118012;28;20206;-59
2022/08/19 09:09:15;;;;;;;7.67;6.33;;;;;;;;;;5108653;28;20202;-61
2022/08/19 09:11:51;;;;;;;11.93;7.20;;;;;;;;;;5117013;27;20209;-60
2022/08/19 09:14:29;;;;;;;10.00;7.63;;;;;;;;;;5111249;28;20428;-60
2022/08/19 09:17:17;;;;;;;7.80;6.80;;;;;;;;;;5112424;28;20202;-59
2022/08/19 09:19:54;;;;;;;7.80;7.00;;;;;;;;;;5119941;28;20210;-60
2022/08/19 09:22:22;;;;;;;12.47;10.50;;;;;;;;;;5109635;28;20210;-60
2022/08/19 09:24:55;;;;;;;8.43;7.20;;;;;;;;;;5115593;28;20218;-60
2022/08/19 09:27:24;;;;;;;8.47;7.53;;;;;;;;;;5115790;28;20209;-60
2022/08/19 09:30:12;;;;;;;11.43;7.30;;;;;;;;;;5109668;28;20296;-60
2022/08/19 09:32:42;;;;;;;9.17;7.40;;;;;;;;;;5115327;27;20204;-60
2022/08/19 09:35:10;;;;;;;11.83;8.13;;;;;;;;;;5115408;27;20288;-60
2022/08/19 09:37:39;;;;;;;8.70;7.70;;;;;;;;;;5120755;28;20202;-60
2022/08/19 09:40:07;;;;;;;12.33;8.30;;;;;;;;;;5121074;28;20666;-60
2022/08/19 09:42:38;;;;;;;11.23;8.10;;;;;;;;;;5108837;27;20544;-60
2022/08/19 09:45:21;;;;;;;12.40;8.93;;;;;;;;;;5116760;27;21613;-59
2022/08/19 09:47:50;;;;;;;11.70;8.60;;;;;;;;;;5116944;27;20210;-59
2022/08/19 09:50:22;;;;;;;10.67;8.43;;;;;;;;;;5113588;28;20297;-60
2022/08/19 09:52:52;;;;;;;11.43;8.70;;;;;;;;;;5118645;27;20256;-60
2022/08/19 09:55:23;;;;;;;11.87;8.60;;;;;;;;;;5111013;27;20223;-60
2022/08/19 09:57:59;;;;;;;13.97;8.97;;;;;;;;;;5107447;28;20208;-60
2022/08/19 10:00:30;;;;;;;12.53;8.70;;;;;;;;;;5111761;27;20674;-60
2022/08/19 10:02:58;;;;;;;12.37;9.63;;;;;;;;;;5122198;27;20218;-60
2022/08/19 10:08:15;;;;;;;12.07;9.00;;;;;;;;;;5123986;27;20620;-59
2022/08/19 10:10:44;;;;;;;12.10;9.93;;;;;;;;;;5129518;27;20265;-60
2022/08/19 10:13:14;;;;;;;11.00;9.90;;;;;;;;;;5128376;27;20222;-59
2022/08/19 10:15:43;;;;;;;12.00;9.43;;;;;;;;;;5125777;27;20272;-59
2022/08/19 10:18:16;;;;;;;11.60;9.37;;;;;;;;;;5123585;27;20213;-59
2022/08/19 10:20:45;;;;;;;11.07;8.77;;;;;;;;;;5128193;27;20576;-61
2022/08/19 10:23:20;;;;;;;12.00;9.63;;;;;;;;;;5126481;27;20262;-60
2022/08/19 10:25:48;;;;;;;12.77;9.50;;;;;;;;;;5121427;27;20220;-60
2022/08/19 10:28:16;;;;;;;12.57;9.80;;;;;;;;;;5125365;27;20569;-60
2022/08/19 10:30:48;;;;;;;9.83;8.33;;;;;;;;;;5122976;27;20200;-59
2022/08/19 10:33:15;;;;;;;12.83;8.67;;;;;;;;;;5120554;27;20248;-59
2022/08/19 10:36:04;;;;;;;9.97;8.67;;;;;;;;;;5127044;27;20342;-60
2022/08/19 10:38:33;;;;;;;12.17;8.60;;;;;;;;;;5126350;27;20610;-60
2022/08/19 10:41:07;;;;;;;9.73;8.20;;;;;;;;;;5123009;27;20567;-60
2022/08/19 10:43:37;;;;;;;9.17;8.27;;;;;;;;;;5127580;27;20268;-60
2022/08/19 10:46:07;;;;;;;7.87;7.03;;;;;;;;;;5126685;27;20193;-60
2022/08/19 10:48:41;;;;;;;8.43;7.63;;;;;;;;;;5124555;27;20204;-60
2022/08/19 10:53:55;;;;;;;9.80;7.47;;;;;;;;;;5121244;27;20279;-60
2022/08/19 10:59:08;;;;;;;6.70;6.10;;;;;;;;;;5117781;27;20199;-59
2022/08/19 11:01:38;;;;;;;7.43;6.73;;;;;;;;;;5127811;27;20199;-60
2022/08/19 11:04:08;;;;;;;7.73;7.03;;;;;;;;;;5123476;27;20228;-60
2022/08/19 11:06:38;;;;;;;7.97;6.90;;;;;;;;;;5123044;27;20199;-59
2022/08/19 11:09:06;;;;;;;6.80;6.17;;;;;;;;;;5117134;27;20258;-59
2022/08/19 11:11:35;;;;;;;6.93;6.33;;;;;;;;;;5123605;27;20229;-59
2022/08/19 11:14:06;;;;;;;8.67;6.70;;;;;;;;;;5124636;27;20241;-60
2022/08/19 11:16:34;;;;;;;8.13;6.37;;;;;;;;;;5127574;27;20223;-59
2022/08/19 11:19:03;;;;;;;7.70;6.33;;;;;;;;;;5119506;28;20618;-60
2022/08/19 11:21:32;;;;;;;6.20;5.60;;;;;;;;;;5113222;28;20206;-60
2022/08/19 11:24:02;;;;;;;7.57;6.87;;;;;;;;;;5114892;28;20692;-60
2022/08/19 11:26:30;;;;;;;8.50;7.63;;;;;;;;;;5113949;28;20712;-60
2022/08/19 11:28:59;;;;;;;8.90;6.80;;;;;;;;;;5109961;28;20683;-60
2022/08/19 11:31:30;;;;;;;6.00;5.40;;;;;;;;;;5115295;28;20236;-61
2022/08/19 11:33:59;;;;;;;6.70;5.80;;;;;;;;;;5114877;27;20229;-60
2022/08/19 11:36:29;;;;;;;7.70;5.40;;;;;;;;;;5109702;28;20232;-60
2022/08/19 11:38:57;;;;;;;7.17;6.30;;;;;;;;;;5111700;28;20210;-60
2022/08/19 11:41:25;;;;;;;6.40;5.77;;;;;;;;;;5108318;27;20205;-60
2022/08/19 11:43:54;;;;;;;5.40;4.90;;;;;;;;;;5117695;27;20248;-59
2022/08/19 11:46:24;;;;;;;6.10;5.20;;;;;;;;;;5106127;28;20223;-60
2022/08/19 11:48:52;;;;;;;7.37;5.63;;;;;;;;;;5106919;28;20227;-60
2022/08/19 11:51:21;;;;;;;6.27;4.93;;;;;;;;;;5105317;28;20228;-60
2022/08/19 11:53:51;;;;;;;6.90;5.73;;;;;;;;;;5105755;28;20213;-60
2022/08/19 11:56:20;;;;;;;6.50;5.20;;;;;;;;;;5113388;27;20197;-60
2022/08/19 11:58:47;;;;;;;5.90;5.30;;;;;;;;;;5104435;28;20231;-60
2022/08/19 12:01:17;;;;;;;5.67;4.87;;;;;;;;;;5106338;28;20208;-60
2022/08/19 12:03:46;;;;;;;5.10;4.70;;;;;;;;;;5106482;28;20233;-60
2022/08/19 12:06:15;;;;;;;5.30;4.80;;;;;;;;;;5105800;28;20274;-60
2022/08/19 12:08:43;;;;;;;6.10;4.73;;;;;;;;;;5116819;27;20310;-60
2022/08/19 12:11:13;;;;;;;5.23;4.77;;;;;;;;;;5108660;28;20706;-60
2022/08/19 12:13:45;;;;;;;4.73;4.33;;;;;;;;;;5102869;28;20310;-60
2022/08/19 12:16:14;;;;;;;5.97;4.70;;;;;;;;;;5115657;28;20201;-60
2022/08/19 12:18:43;;;;;;;5.57;4.67;;;;;;;;;;5115164;28;20752;-60
2022/08/19 12:21:13;;;;;;;5.10;4.60;;;;;;;;;;5111445;28;20243;-60
2022/08/19 12:23:41;;;;;;;5.80;5.30;;;;;;;;;;5112277;27;20277;-60
2022/08/19 12:26:10;;;;;;;6.10;4.87;;;;;;;;;;5111608;28;20248;-60
2022/08/19 12:28:39;;;;;;;5.13;4.63;;;;;;;;;;5105157;28;20213;-60
2022/08/19 12:31:08;;;;;;;5.20;4.33;;;;;;;;;;5117607;28;20200;-60
2022/08/19 12:33:36;;;;;;;5.50;4.17;;;;;;;;;;5117249;28;20221;-60
2022/08/19 12:36:05;;;;;;;7.67;4.90;;;;;;;;;;5116650;28;20201;-59
2022/08/19 12:38:34;;;;;;;6.60;4.43;;;;;;;;;;5110228;28;20295;-59
2022/08/19 12:41:05;;;;;;;5.10;4.60;;;;;;;;;;5101670;28;20654;-59
2022/08/19 12:43:34;;;;;;;4.80;4.37;;;;;;;;;;5102218;28;20285;-59
2022/08/19 12:46:05;;;;;;;5.13;4.53;;;;;;;;;;5108469;28;20201;-59
2022/08/19 12:48:39;;;;;;;4.73;4.33;;;;;;;;;;5115419;27;20249;-59
2022/08/19 12:51:09;;;;;;;5.90;4.70;;;;;;;;;;5125902;27;20225;-59
2022/08/19 12:53:37;;;;;;;4.27;3.97;;;;;;;;;;5124046;27;20281;-59
2022/08/19 12:56:06;;;;;;;7.13;5.07;;;;;;;;;;5127645;27;20200;-59
2022/08/19 12:58:41;;;;;;;5.23;4.03;;;;;;;;;;5124185;28;20261;-59
2022/08/19 13:01:19;;;;;;;5.17;4.30;;;;;;;;;;5121827;28;20264;-59
2022/08/19 13:03:50;;;;;;;5.47;4.37;;;;;;;;;;5119861;28;20253;-59
2022/08/19 13:06:18;;;;;;;5.07;4.50;;;;;;;;;;5122874;27;20201;-59
2022/08/19 13:08:47;;;;;;;4.27;3.97;;;;;;;;;;5117629;28;20227;-60
2022/08/19 13:11:17;;;;;;;4.70;4.20;;;;;;;;;;5117014;28;20402;-60
2022/08/19 13:13:46;;;;;;;3.93;3.63;;;;;;;;;;5120193;28;20221;-60
2022/08/19 13:16:15;;;;;;;6.50;3.90;;;;;;;;;;5120377;27;20609;-65
2022/08/19 13:18:46;;;;;;;4.77;4.37;;;;;;;;;;5108571;28;20226;-68
2022/08/19 13:21:14;;;;;;;3.70;3.40;;;;;;;;;;5101169;28;20237;-66
2022/08/19 13:23:42;;;;;;;5.43;4.80;;;;;;;;;;5116750;28;20253;-67
2022/08/19 13:26:11;;;;;;;4.40;4.00;;;;;;;;;;5117347;28;20237;-67
2022/08/19 13:34:33;;;;;;;3.80;3.50;;;;;;;;;;5043142;28;20220;-67
2022/08/19 13:37:02;;;;;;;5.57;4.13;;;;;;;;;;5097009;28;20210;-67
2022/08/19 13:39:32;;;;;;;7.17;5.10;;;;;;;;;;5103966;28;20235;-67
2022/08/19 13:42:00;;;;;;;5.87;5.27;;;;;;;;;;5108607;28;20572;-66
2022/08/19 13:44:29;;;;;;;7.67;4.83;;;;;;;;;;5103474;28;20253;-67
2022/08/19 13:47:04;;;;;;;5.97;5.33;;;;;;;;;;5116838;28;20562;-67
2022/08/19 13:49:35;;;;;;;5.60;4.93;;;;;;;;;;5105304;28;20572;-66
2022/08/19 13:52:04;;;;;;;8.93;4.47;;;;;;;;;;5112386;28;20207;-67
2022/08/19 13:54:32;;;;;;;5.50;5.00;;;;;;;;;;5117107;28;20281;-66
2022/08/19 13:57:00;;;;;;;5.30;4.50;;;;;;;;;;5112410;28;20627;-67
2022/08/19 13:59:28;;;;;;;7.17;4.20;;;;;;;;;;5103794;28;20227;-68
2022/08/19 14:01:58;;;;;;;10.03;4.47;;;;;;;;;;5109680;28;20256;-67
2022/08/19 14:04:26;;;;;;;8.67;5.20;;;;;;;;;;5100904;28;20230;-66
2022/08/19 14:06:56;;;;;;;7.27;4.77;;;;;;;;;;5107935;28;20235;-67
2022/08/19 14:09:24;;;;;;;5.70;4.23;;;;;;;;;;5121269;28;20205;-66
2022/08/19 14:11:51;;;;;;;5.60;4.83;;;;;;;;;;5120990;28;20230;-67
2022/08/19 14:14:19;;;;;;;5.33;4.37;;;;;;;;;;5118926;28;20737;-67
2022/08/19 14:16:47;;;;;;;6.40;5.53;;;;;;;;;;5109227;28;20686;-67
2022/08/19 14:19:16;;;;;;;6.43;4.90;;;;;;;;;;5120739;28;20627;-67
2022/08/19 14:21:43;;;;;;;5.40;4.63;;;;;;;;;;5121180;28;20238;-67
2022/08/19 14:24:13;;;;;;;4.97;4.03;;;;;;;;;;5117959;28;20265;-67
2022/08/19 14:26:41;;;;;;;5.83;4.40;;;;;;;;;;5120918;28;20217;-67
2022/08/19 14:29:09;;;;;;;5.53;5.03;;;;;;;;;;5115865;28;20293;-67
2022/08/19 14:31:40;;;;;;;6.53;5.00;;;;;;;;;;5118196;28;20231;-67
2022/08/19 14:34:09;;;;;;;4.97;4.33;;;;;;;;;;5120243;28;20287;-67
2022/08/19 14:36:37;;;;;;;6.17;5.23;;;;;;;;;;5112186;28;20690;-67
2022/08/19 14:39:06;;;;;;;5.37;4.80;;;;;;;;;;5115087;28;20593;-66
2022/08/19 14:41:36;;;;;;;4.67;4.23;;;;;;;;;;5108992;28;20206;-66
2022/08/19 14:44:04;;;;;;;3.93;3.50;;;;;;;;;;5105263;28;20223;-67
2022/08/19 14:46:32;;;;;;;4.87;3.93;;;;;;;;;;5109610;28;20237;-67
2022/08/19 14:49:00;;;;;;;4.67;4.13;;;;;;;;;;5111669;27;20573;-67
2022/08/19 14:51:36;;;;;;;4.33;3.93;;;;;;;;;;5111433;28;20320;-67
2022/08/19 14:54:04;;;;;;;5.83;4.47;;;;;;;;;;5120489;28;20234;-67
2022/08/19 14:56:32;;;;;;;6.27;4.73;;;;;;;;;;5120345;28;20241;-67
2022/08/19 14:59:01;;;;;;;4.90;4.50;;;;;;;;;;5112151;28;20222;-67
2022/08/19 15:01:29;;;;;;;6.53;4.37;;;;;;;;;;5105399;28;20256;-67
2022/08/19 15:03:57;;;;;;;4.67;4.20;;;;;;;;;;5107332;28;20267;-67
2022/08/19 15:06:26;;;;;;;5.07;4.20;;;;;;;;;;5119616;27;20207;-67
2022/08/19 15:08:54;;;;;;;3.97;3.50;;;;;;;;;;5126264;27;20578;-67
2022/08/19 15:11:27;;;;;;;4.03;3.63;;;;;;;;;;5108588;27;20214;-67
2022/08/19 15:13:55;;;;;;;3.77;3.23;;;;;;;;;;5107972;28;20257;-67
2022/08/19 15:16:25;;;;;;;3.97;3.50;;;;;;;;;;5099716;28;20205;-67
2022/08/19 15:18:54;;;;;;;4.40;4.10;;;;;;;;;;5109433;28;20499;-67
2022/08/19 15:21:24;;;;;;;4.40;3.70;;;;;;;;;;5111802;28;20235;-67
2022/08/19 15:23:54;;;;;;;6.60;3.73;;;;;;;;;;5113644;28;20238;-67
2022/08/19 15:26:22;;;;;;;4.80;4.07;;;;;;;;;;5113283;28;20226;-67